sensor_id;sensor_type;location;lat;lon;timestamp;P1;durP1;ratioP1;P2;durP2;ratioP2
11348;SDS011;5729;43.570;27.826;2023-06-19T00:00:07;8.65;;;3.75;;
11348;SDS011;5729;43.570;27.826;2023-06-19T00:02:42;10.02;;;3.97;;
11348;SDS011;5729;43.570;27.826;2023-06-19T00:05:08;11.82;;;4.82;;
11348;SDS011;5729;43.570;27.826;2023-06-19T00:07:38;5.72;;;3.17;;
11348;SDS011;5729;43.570;27.826;2023-06-19T00:10:04;8.52;;;3.70;;
11348;SDS011;5729;43.570;27.826;2023-06-19T00:12:31;8.93;;;3.58;;
11348;SDS011;5729;43.570;27.826;2023-06-19T00:14:57;8.13;;;3.88;;
11348;SDS011;5729;43.570;27.826;2023-06-19T00:17:22;6.38;;;3.83;;
11348;SDS011;5729;43.570;27.826;2023-06-19T00:19:51;7.97;;;3.47;;
11348;SDS011;5729;43.570;27.826;2023-06-19T00:22:17;7.95;;;3.90;;
11348;SDS011;5729;43.570;27.826;2023-06-19T00:24:42;9.20;;;4.00;;
11348;SDS011;5729;43.570;27.826;2023-06-19T00:27:08;8.45;;;3.65;;
11348;SDS011;5729;43.570;27.826;2023-06-19T00:29:33;8.38;;;4.13;;
11348;SDS011;5729;43.570;27.826;2023-06-19T00:31:59;7.80;;;3.75;;
11348;SDS011;5729;43.570;27.826;2023-06-19T00:34:25;7.00;;;3.60;;
11348;SDS011;5729;43.570;27.826;2023-06-19T00:36:51;8.07;;;3.30;;
11348;SDS011;5729;43.570;27.826;2023-06-19T00:39:21;7.38;;;3.72;;
11348;SDS011;5729;43.570;27.826;2023-06-19T00:41:47;5.95;;;3.75;;
11348;SDS011;5729;43.570;27.826;2023-06-19T00:44:13;11.45;;;4.25;;
11348;SDS011;5729;43.570;27.826;2023-06-19T00:46:40;8.57;;;4.03;;
11348;SDS011;5729;43.570;27.826;2023-06-19T00:49:06;4.93;;;4.22;;
11348;SDS011;5729;43.570;27.826;2023-06-19T00:51:32;10.52;;;4.68;;
11348;SDS011;5729;43.570;27.826;2023-06-19T00:53:58;8.43;;;4.70;;
11348;SDS011;5729;43.570;27.826;2023-06-19T00:56:24;11.05;;;4.70;;
11348;SDS011;5729;43.570;27.826;2023-06-19T00:58:51;7.38;;;4.78;;
11348;SDS011;5729;43.570;27.826;2023-06-19T01:01:18;7.82;;;5.20;;
11348;SDS011;5729;43.570;27.826;2023-06-19T01:03:46;11.80;;;5.38;;
11348;SDS011;5729;43.570;27.826;2023-06-19T01:06:17;12.55;;;4.88;;
11348;SDS011;5729;43.570;27.826;2023-06-19T01:11:20;6.75;;;4.88;;
11348;SDS011;5729;43.570;27.826;2023-06-19T01:13:49;10.35;;;5.38;;
11348;SDS011;5729;43.570;27.826;2023-06-19T01:16:21;8.45;;;5.75;;
11348;SDS011;5729;43.570;27.826;2023-06-19T01:18:47;10.27;;;4.80;;
11348;SDS011;5729;43.570;27.826;2023-06-19T01:21:17;10.93;;;5.63;;
11348;SDS011;5729;43.570;27.826;2023-06-19T01:23:44;13.30;;;5.68;;
11348;SDS011;5729;43.570;27.826;2023-06-19T01:26:10;10.98;;;5.82;;
11348;SDS011;5729;43.570;27.826;2023-06-19T01:28:36;7.25;;;5.00;;
11348;SDS011;5729;43.570;27.826;2023-06-19T01:31:25;7.82;;;5.35;;
11348;SDS011;5729;43.570;27.826;2023-06-19T01:33:55;10.95;;;5.72;;
11348;SDS011;5729;43.570;27.826;2023-06-19T01:36:22;11.25;;;5.78;;
11348;SDS011;5729;43.570;27.826;2023-06-19T01:38:49;7.10;;;5.47;;
11348;SDS011;5729;43.570;27.826;2023-06-19T01:41:16;7.88;;;5.50;;
11348;SDS011;5729;43.570;27.826;2023-06-19T01:43:44;15.20;;;6.35;;
11348;SDS011;5729;43.570;27.826;2023-06-19T01:46:11;8.30;;;5.65;;
11348;SDS011;5729;43.570;27.826;2023-06-19T01:48:37;7.35;;;5.60;;
11348;SDS011;5729;43.570;27.826;2023-06-19T01:51:04;7.55;;;5.97;;
11348;SDS011;5729;43.570;27.826;2023-06-19T01:53:30;10.25;;;5.63;;
11348;SDS011;5729;43.570;27.826;2023-06-19T01:55:57;9.15;;;6.03;;
11348;SDS011;5729;43.570;27.826;2023-06-19T01:58:23;7.55;;;5.93;;
11348;SDS011;5729;43.570;27.826;2023-06-19T02:00:49;11.70;;;6.20;;
11348;SDS011;5729;43.570;27.826;2023-06-19T02:03:14;10.70;;;5.68;;
11348;SDS011;5729;43.570;27.826;2023-06-19T02:05:40;12.18;;;6.85;;
11348;SDS011;5729;43.570;27.826;2023-06-19T02:08:05;11.80;;;6.97;;
11348;SDS011;5729;43.570;27.826;2023-06-19T02:10:31;11.43;;;6.28;;
11348;SDS011;5729;43.570;27.826;2023-06-19T02:12:57;9.43;;;6.40;;
11348;SDS011;5729;43.570;27.826;2023-06-19T02:15:23;15.43;;;6.53;;
11348;SDS011;5729;43.570;27.826;2023-06-19T02:17:48;9.10;;;6.35;;
11348;SDS011;5729;43.570;27.826;2023-06-19T02:20:14;10.52;;;6.53;;
11348;SDS011;5729;43.570;27.826;2023-06-19T02:22:39;14.40;;;6.53;;
11348;SDS011;5729;43.570;27.826;2023-06-19T02:25:05;11.02;;;6.57;;
11348;SDS011;5729;43.570;27.826;2023-06-19T02:27:31;12.38;;;6.20;;
11348;SDS011;5729;43.570;27.826;2023-06-19T02:29:57;11.13;;;6.40;;
11348;SDS011;5729;43.570;27.826;2023-06-19T02:32:22;12.30;;;7.00;;
11348;SDS011;5729;43.570;27.826;2023-06-19T02:34:48;12.25;;;7.55;;
11348;SDS011;5729;43.570;27.826;2023-06-19T02:37:13;11.23;;;7.18;;
11348;SDS011;5729;43.570;27.826;2023-06-19T02:39:39;9.82;;;7.90;;
11348;SDS011;5729;43.570;27.826;2023-06-19T02:42:04;10.25;;;7.25;;
11348;SDS011;5729;43.570;27.826;2023-06-19T02:44:31;15.57;;;7.53;;
11348;SDS011;5729;43.570;27.826;2023-06-19T02:46:58;13.63;;;7.80;;
11348;SDS011;5729;43.570;27.826;2023-06-19T02:49:23;11.60;;;7.72;;
11348;SDS011;5729;43.570;27.826;2023-06-19T02:51:49;14.25;;;7.90;;
11348;SDS011;5729;43.570;27.826;2023-06-19T02:54:14;16.33;;;8.30;;
11348;SDS011;5729;43.570;27.826;2023-06-19T02:56:40;9.95;;;7.55;;
11348;SDS011;5729;43.570;27.826;2023-06-19T02:59:05;13.75;;;7.53;;
11348;SDS011;5729;43.570;27.826;2023-06-19T03:01:31;10.57;;;8.07;;
11348;SDS011;5729;43.570;27.826;2023-06-19T03:03:56;13.02;;;7.93;;
11348;SDS011;5729;43.570;27.826;2023-06-19T03:06:22;11.95;;;7.80;;
11348;SDS011;5729;43.570;27.826;2023-06-19T03:08:47;10.13;;;7.93;;
11348;SDS011;5729;43.570;27.826;2023-06-19T03:11:13;19.80;;;9.30;;
11348;SDS011;5729;43.570;27.826;2023-06-19T03:13:49;13.55;;;8.48;;
11348;SDS011;5729;43.570;27.826;2023-06-19T03:16:15;12.77;;;8.07;;
11348;SDS011;5729;43.570;27.826;2023-06-19T03:18:41;12.90;;;9.23;;
11348;SDS011;5729;43.570;27.826;2023-06-19T03:21:09;15.32;;;8.30;;
11348;SDS011;5729;43.570;27.826;2023-06-19T03:23:35;14.15;;;8.63;;
11348;SDS011;5729;43.570;27.826;2023-06-19T03:26:01;16.42;;;8.95;;
11348;SDS011;5729;43.570;27.826;2023-06-19T03:28:27;11.55;;;8.45;;
11348;SDS011;5729;43.570;27.826;2023-06-19T03:30:52;14.27;;;8.88;;
11348;SDS011;5729;43.570;27.826;2023-06-19T03:33:18;10.13;;;8.13;;
11348;SDS011;5729;43.570;27.826;2023-06-19T03:35:44;11.30;;;9.02;;
11348;SDS011;5729;43.570;27.826;2023-06-19T03:38:09;10.10;;;8.75;;
11348;SDS011;5729;43.570;27.826;2023-06-19T03:40:35;10.75;;;8.32;;
11348;SDS011;5729;43.570;27.826;2023-06-19T03:43:00;12.63;;;8.23;;
11348;SDS011;5729;43.570;27.826;2023-06-19T03:45:25;9.73;;;7.57;;
11348;SDS011;5729;43.570;27.826;2023-06-19T03:47:51;11.45;;;7.72;;
11348;SDS011;5729;43.570;27.826;2023-06-19T03:50:16;15.82;;;8.02;;
11348;SDS011;5729;43.570;27.826;2023-06-19T03:52:42;15.73;;;7.07;;
11348;SDS011;5729;43.570;27.826;2023-06-19T03:55:07;8.77;;;6.70;;
11348;SDS011;5729;43.570;27.826;2023-06-19T03:57:33;9.35;;;6.95;;
11348;SDS011;5729;43.570;27.826;2023-06-19T03:59:58;11.75;;;6.57;;
11348;SDS011;5729;43.570;27.826;2023-06-19T04:02:24;8.18;;;5.70;;
11348;SDS011;5729;43.570;27.826;2023-06-19T04:04:50;5.50;;;4.55;;
11348;SDS011;5729;43.570;27.826;2023-06-19T04:07:15;6.35;;;4.95;;
11348;SDS011;5729;43.570;27.826;2023-06-19T04:09:41;6.70;;;4.78;;
11348;SDS011;5729;43.570;27.826;2023-06-19T04:12:06;10.00;;;4.95;;
11348;SDS011;5729;43.570;27.826;2023-06-19T04:14:32;6.13;;;4.68;;
11348;SDS011;5729;43.570;27.826;2023-06-19T04:16:58;4.68;;;3.88;;
11348;SDS011;5729;43.570;27.826;2023-06-19T04:19:23;7.63;;;4.63;;
11348;SDS011;5729;43.570;27.826;2023-06-19T04:21:48;6.60;;;4.70;;
11348;SDS011;5729;43.570;27.826;2023-06-19T04:24:14;6.80;;;4.40;;
11348;SDS011;5729;43.570;27.826;2023-06-19T04:26:39;5.15;;;3.92;;
11348;SDS011;5729;43.570;27.826;2023-06-19T04:29:05;5.03;;;3.97;;
11348;SDS011;5729;43.570;27.826;2023-06-19T04:31:32;6.03;;;4.25;;
11348;SDS011;5729;43.570;27.826;2023-06-19T04:33:57;3.92;;;3.58;;
11348;SDS011;5729;43.570;27.826;2023-06-19T04:36:23;5.93;;;3.83;;
11348;SDS011;5729;43.570;27.826;2023-06-19T04:38:48;6.32;;;3.83;;
11348;SDS011;5729;43.570;27.826;2023-06-19T04:41:17;9.63;;;3.58;;
11348;SDS011;5729;43.570;27.826;2023-06-19T04:43:42;4.22;;;3.80;;
11348;SDS011;5729;43.570;27.826;2023-06-19T04:46:08;5.40;;;3.17;;
11348;SDS011;5729;43.570;27.826;2023-06-19T04:48:33;9.52;;;4.10;;
11348;SDS011;5729;43.570;27.826;2023-06-19T04:51:01;7.32;;;3.10;;
11348;SDS011;5729;43.570;27.826;2023-06-19T04:53:27;5.25;;;2.55;;
11348;SDS011;5729;43.570;27.826;2023-06-19T04:55:53;4.60;;;2.70;;
11348;SDS011;5729;43.570;27.826;2023-06-19T04:58:20;3.30;;;3.00;;
11348;SDS011;5729;43.570;27.826;2023-06-19T05:00:46;3.53;;;3.03;;
11348;SDS011;5729;43.570;27.826;2023-06-19T05:03:16;6.80;;;2.35;;
11348;SDS011;5729;43.570;27.826;2023-06-19T05:05:43;6.10;;;2.72;;
11348;SDS011;5729;43.570;27.826;2023-06-19T05:08:08;7.72;;;2.80;;
11348;SDS011;5729;43.570;27.826;2023-06-19T05:10:34;3.70;;;2.80;;
11348;SDS011;5729;43.570;27.826;2023-06-19T05:13:00;7.63;;;3.08;;
11348;SDS011;5729;43.570;27.826;2023-06-19T05:15:26;3.72;;;2.85;;
11348;SDS011;5729;43.570;27.826;2023-06-19T05:17:52;6.35;;;2.63;;
11348;SDS011;5729;43.570;27.826;2023-06-19T05:20:17;3.30;;;3.00;;
11348;SDS011;5729;43.570;27.826;2023-06-19T05:22:43;5.03;;;2.50;;
11348;SDS011;5729;43.570;27.826;2023-06-19T05:25:08;3.65;;;2.72;;
11348;SDS011;5729;43.570;27.826;2023-06-19T05:27:34;6.30;;;2.65;;
11348;SDS011;5729;43.570;27.826;2023-06-19T05:30:00;5.32;;;2.38;;
11348;SDS011;5729;43.570;27.826;2023-06-19T05:32:25;3.70;;;2.75;;
11348;SDS011;5729;43.570;27.826;2023-06-19T05:34:50;4.32;;;2.38;;
11348;SDS011;5729;43.570;27.826;2023-06-19T05:37:16;6.78;;;2.50;;
11348;SDS011;5729;43.570;27.826;2023-06-19T05:39:42;7.50;;;2.60;;
11348;SDS011;5729;43.570;27.826;2023-06-19T05:42:07;5.28;;;2.38;;
11348;SDS011;5729;43.570;27.826;2023-06-19T05:44:32;6.20;;;2.88;;
11348;SDS011;5729;43.570;27.826;2023-06-19T05:46:58;3.58;;;2.67;;
11348;SDS011;5729;43.570;27.826;2023-06-19T05:49:23;2.80;;;2.42;;
11348;SDS011;5729;43.570;27.826;2023-06-19T05:51:49;3.20;;;2.47;;
11348;SDS011;5729;43.570;27.826;2023-06-19T05:54:14;4.82;;;2.50;;
11348;SDS011;5729;43.570;27.826;2023-06-19T05:56:40;3.25;;;2.55;;
11348;SDS011;5729;43.570;27.826;2023-06-19T05:59:06;4.38;;;3.05;;
11348;SDS011;5729;43.570;27.826;2023-06-19T06:01:31;3.35;;;2.85;;
11348;SDS011;5729;43.570;27.826;2023-06-19T06:03:57;5.05;;;2.80;;
11348;SDS011;5729;43.570;27.826;2023-06-19T06:06:23;3.85;;;2.55;;
11348;SDS011;5729;43.570;27.826;2023-06-19T06:08:49;3.13;;;2.72;;
11348;SDS011;5729;43.570;27.826;2023-06-19T06:11:16;3.42;;;2.60;;
11348;SDS011;5729;43.570;27.826;2023-06-19T06:13:41;7.10;;;2.80;;
11348;SDS011;5729;43.570;27.826;2023-06-19T06:16:07;4.40;;;2.83;;
11348;SDS011;5729;43.570;27.826;2023-06-19T06:18:32;3.25;;;2.95;;
11348;SDS011;5729;43.570;27.826;2023-06-19T06:20:58;6.90;;;2.50;;
11348;SDS011;5729;43.570;27.826;2023-06-19T06:23:24;4.35;;;3.20;;
11348;SDS011;5729;43.570;27.826;2023-06-19T06:25:50;7.75;;;3.10;;
11348;SDS011;5729;43.570;27.826;2023-06-19T06:28:16;9.45;;;3.33;;
11348;SDS011;5729;43.570;27.826;2023-06-19T06:30:42;3.10;;;2.80;;
11348;SDS011;5729;43.570;27.826;2023-06-19T06:33:08;4.82;;;2.72;;
11348;SDS011;5729;43.570;27.826;2023-06-19T06:35:33;7.25;;;3.10;;
11348;SDS011;5729;43.570;27.826;2023-06-19T06:38:00;6.82;;;2.80;;
11348;SDS011;5729;43.570;27.826;2023-06-19T06:40:26;5.30;;;2.40;;
11348;SDS011;5729;43.570;27.826;2023-06-19T06:42:52;6.07;;;3.38;;
11348;SDS011;5729;43.570;27.826;2023-06-19T06:45:19;4.00;;;2.92;;
11348;SDS011;5729;43.570;27.826;2023-06-19T06:47:44;5.55;;;2.85;;
11348;SDS011;5729;43.570;27.826;2023-06-19T06:50:10;3.60;;;2.90;;
11348;SDS011;5729;43.570;27.826;2023-06-19T06:52:35;3.42;;;2.60;;
11348;SDS011;5729;43.570;27.826;2023-06-19T06:55:01;4.05;;;2.85;;
11348;SDS011;5729;43.570;27.826;2023-06-19T06:57:26;5.93;;;3.05;;
11348;SDS011;5729;43.570;27.826;2023-06-19T06:59:52;4.25;;;2.70;;
11348;SDS011;5729;43.570;27.826;2023-06-19T07:02:17;4.78;;;2.63;;
11348;SDS011;5729;43.570;27.826;2023-06-19T07:04:43;3.20;;;2.90;;
11348;SDS011;5729;43.570;27.826;2023-06-19T07:07:08;3.55;;;2.90;;
11348;SDS011;5729;43.570;27.826;2023-06-19T07:09:34;5.30;;;2.90;;
11348;SDS011;5729;43.570;27.826;2023-06-19T07:11:59;8.27;;;3.20;;
11348;SDS011;5729;43.570;27.826;2023-06-19T07:14:26;7.35;;;3.53;;
11348;SDS011;5729;43.570;27.826;2023-06-19T07:16:52;5.03;;;2.95;;
11348;SDS011;5729;43.570;27.826;2023-06-19T07:19:18;7.38;;;3.28;;
11348;SDS011;5729;43.570;27.826;2023-06-19T07:21:43;5.05;;;2.97;;
11348;SDS011;5729;43.570;27.826;2023-06-19T07:24:09;4.70;;;3.03;;
11348;SDS011;5729;43.570;27.826;2023-06-19T07:26:34;2.92;;;2.70;;
11348;SDS011;5729;43.570;27.826;2023-06-19T07:29:00;3.00;;;2.70;;
11348;SDS011;5729;43.570;27.826;2023-06-19T07:31:25;3.88;;;2.60;;
11348;SDS011;5729;43.570;27.826;2023-06-19T07:33:51;5.57;;;2.78;;
11348;SDS011;5729;43.570;27.826;2023-06-19T07:36:16;5.32;;;2.55;;
11348;SDS011;5729;43.570;27.826;2023-06-19T07:38:42;4.65;;;3.17;;
11348;SDS011;5729;43.570;27.826;2023-06-19T07:41:08;4.43;;;3.20;;
11348;SDS011;5729;43.570;27.826;2023-06-19T07:43:35;3.88;;;2.97;;
11348;SDS011;5729;43.570;27.826;2023-06-19T07:46:01;3.58;;;3.20;;
11348;SDS011;5729;43.570;27.826;2023-06-19T07:48:26;7.75;;;3.20;;
11348;SDS011;5729;43.570;27.826;2023-06-19T07:50:53;7.32;;;3.03;;
11348;SDS011;5729;43.570;27.826;2023-06-19T07:53:18;4.38;;;2.90;;
11348;SDS011;5729;43.570;27.826;2023-06-19T07:55:44;6.03;;;3.33;;
11348;SDS011;5729;43.570;27.826;2023-06-19T07:58:09;3.78;;;2.67;;
11348;SDS011;5729;43.570;27.826;2023-06-19T08:00:35;6.00;;;3.08;;
11348;SDS011;5729;43.570;27.826;2023-06-19T08:03:00;2.78;;;2.58;;
11348;SDS011;5729;43.570;27.826;2023-06-19T08:05:26;5.72;;;3.00;;
11348;SDS011;5729;43.570;27.826;2023-06-19T08:07:52;5.10;;;2.90;;
11348;SDS011;5729;43.570;27.826;2023-06-19T08:10:17;4.70;;;2.92;;
11348;SDS011;5729;43.570;27.826;2023-06-19T08:12:43;3.00;;;2.58;;
11348;SDS011;5729;43.570;27.826;2023-06-19T08:15:09;3.10;;;2.80;;
11348;SDS011;5729;43.570;27.826;2023-06-19T08:17:35;2.97;;;2.72;;
11348;SDS011;5729;43.570;27.826;2023-06-19T08:20:01;4.10;;;3.10;;
11348;SDS011;5729;43.570;27.826;2023-06-19T08:22:30;4.78;;;3.13;;
11348;SDS011;5729;43.570;27.826;2023-06-19T08:24:55;5.80;;;2.83;;
11348;SDS011;5729;43.570;27.826;2023-06-19T08:27:21;2.55;;;2.17;;
11348;SDS011;5729;43.570;27.826;2023-06-19T08:29:47;2.78;;;2.50;;
11348;SDS011;5729;43.570;27.826;2023-06-19T08:32:12;3.53;;;2.50;;
11348;SDS011;5729;43.570;27.826;2023-06-19T08:34:38;5.95;;;2.58;;
11348;SDS011;5729;43.570;27.826;2023-06-19T08:37:04;6.65;;;2.45;;
11348;SDS011;5729;43.570;27.826;2023-06-19T08:39:30;2.88;;;2.40;;
11348;SDS011;5729;43.570;27.826;2023-06-19T08:41:56;2.97;;;2.22;;
11348;SDS011;5729;43.570;27.826;2023-06-19T08:44:21;3.20;;;2.60;;
11348;SDS011;5729;43.570;27.826;2023-06-19T08:46:47;2.80;;;2.35;;
11348;SDS011;5729;43.570;27.826;2023-06-19T08:49:13;2.67;;;2.47;;
11348;SDS011;5729;43.570;27.826;2023-06-19T08:51:39;2.85;;;2.50;;
11348;SDS011;5729;43.570;27.826;2023-06-19T08:54:05;4.63;;;2.83;;
11348;SDS011;5729;43.570;27.826;2023-06-19T08:56:32;6.63;;;2.78;;
11348;SDS011;5729;43.570;27.826;2023-06-19T08:59:08;8.35;;;2.40;;
11348;SDS011;5729;43.570;27.826;2023-06-19T09:01:51;3.53;;;2.83;;
11348;SDS011;5729;43.570;27.826;2023-06-19T09:04:21;4.70;;;2.70;;
11348;SDS011;5729;43.570;27.826;2023-06-19T09:06:49;3.50;;;2.42;;
11348;SDS011;5729;43.570;27.826;2023-06-19T09:09:18;3.67;;;2.22;;
11348;SDS011;5729;43.570;27.826;2023-06-19T09:14:42;4.60;;;2.30;;
11348;SDS011;5729;43.570;27.826;2023-06-19T09:17:27;3.10;;;2.80;;
11348;SDS011;5729;43.570;27.826;2023-06-19T09:19:53;3.55;;;2.83;;
11348;SDS011;5729;43.570;27.826;2023-06-19T09:22:22;4.25;;;2.70;;
11348;SDS011;5729;43.570;27.826;2023-06-19T09:24:50;3.53;;;2.60;;
11348;SDS011;5729;43.570;27.826;2023-06-19T09:27:19;3.58;;;2.28;;
11348;SDS011;5729;43.570;27.826;2023-06-19T09:29:48;3.05;;;2.85;;
11348;SDS011;5729;43.570;27.826;2023-06-19T09:34:54;4.10;;;2.35;;
11348;SDS011;5729;43.570;27.826;2023-06-19T09:37:27;4.75;;;2.80;;
11348;SDS011;5729;43.570;27.826;2023-06-19T09:39:57;2.90;;;2.60;;
11348;SDS011;5729;43.570;27.826;2023-06-19T09:42:39;2.58;;;2.38;;
11348;SDS011;5729;43.570;27.826;2023-06-19T09:45:08;4.55;;;2.17;;
11348;SDS011;5729;43.570;27.826;2023-06-19T09:50:02;3.03;;;2.50;;
11348;SDS011;5729;43.570;27.826;2023-06-19T09:52:28;3.60;;;2.80;;
11348;SDS011;5729;43.570;27.826;2023-06-19T09:54:54;2.90;;;2.40;;
11348;SDS011;5729;43.570;27.826;2023-06-19T09:57:20;2.47;;;2.28;;
11348;SDS011;5729;43.570;27.826;2023-06-19T09:59:49;2.55;;;2.35;;
11348;SDS011;5729;43.570;27.826;2023-06-19T10:02:17;2.63;;;2.42;;
11348;SDS011;5729;43.570;27.826;2023-06-19T10:04:46;7.93;;;3.05;;
11348;SDS011;5729;43.570;27.826;2023-06-19T10:07:16;5.10;;;2.95;;
11348;SDS011;5729;43.570;27.826;2023-06-19T10:09:54;6.22;;;2.83;;
11348;SDS011;5729;43.570;27.826;2023-06-19T10:12:21;4.35;;;2.63;;
11348;SDS011;5729;43.570;27.826;2023-06-19T10:14:46;3.60;;;3.17;;
11348;SDS011;5729;43.570;27.826;2023-06-19T10:17:18;3.28;;;2.60;;
11348;SDS011;5729;43.570;27.826;2023-06-19T10:19:50;3.72;;;2.72;;
11348;SDS011;5729;43.570;27.826;2023-06-19T10:22:20;2.65;;;2.45;;
11348;SDS011;5729;43.570;27.826;2023-06-19T10:24:50;3.30;;;2.70;;
11348;SDS011;5729;43.570;27.826;2023-06-19T10:27:20;3.10;;;2.70;;
11348;SDS011;5729;43.570;27.826;2023-06-19T10:29:51;3.10;;;2.80;;
11348;SDS011;5729;43.570;27.826;2023-06-19T10:32:18;2.55;;;2.35;;
11348;SDS011;5729;43.570;27.826;2023-06-19T10:34:47;6.03;;;2.90;;
11348;SDS011;5729;43.570;27.826;2023-06-19T10:37:16;6.05;;;2.70;;
11348;SDS011;5729;43.570;27.826;2023-06-19T10:39:42;3.08;;;2.30;;
11348;SDS011;5729;43.570;27.826;2023-06-19T10:42:09;2.97;;;2.78;;
11348;SDS011;5729;43.570;27.826;2023-06-19T10:44:35;2.63;;;2.42;;
11348;SDS011;5729;43.570;27.826;2023-06-19T10:47:04;8.77;;;2.78;;
11348;SDS011;5729;43.570;27.826;2023-06-19T10:49:32;2.22;;;2.03;;
11348;SDS011;5729;43.570;27.826;2023-06-19T10:51:59;4.30;;;2.63;;
11348;SDS011;5729;43.570;27.826;2023-06-19T10:54:25;7.47;;;3.00;;
11348;SDS011;5729;43.570;27.826;2023-06-19T10:56:52;3.10;;;2.65;;
11348;SDS011;5729;43.570;27.826;2023-06-19T10:59:18;4.80;;;2.63;;
11348;SDS011;5729;43.570;27.826;2023-06-19T11:01:44;2.97;;;2.67;;
11348;SDS011;5729;43.570;27.826;2023-06-19T11:04:12;5.15;;;3.20;;
11348;SDS011;5729;43.570;27.826;2023-06-19T11:06:39;5.10;;;2.78;;
11348;SDS011;5729;43.570;27.826;2023-06-19T11:09:06;3.72;;;2.70;;
11348;SDS011;5729;43.570;27.826;2023-06-19T11:11:54;4.75;;;2.85;;
11348;SDS011;5729;43.570;27.826;2023-06-19T11:14:19;6.82;;;3.67;;
11348;SDS011;5729;43.570;27.826;2023-06-19T11:16:46;3.75;;;2.92;;
11348;SDS011;5729;43.570;27.826;2023-06-19T11:19:16;3.10;;;2.63;;
11348;SDS011;5729;43.570;27.826;2023-06-19T11:21:47;5.53;;;2.78;;
11348;SDS011;5729;43.570;27.826;2023-06-19T11:24:14;4.00;;;2.70;;
11348;SDS011;5729;43.570;27.826;2023-06-19T11:26:44;2.92;;;2.72;;
11348;SDS011;5729;43.570;27.826;2023-06-19T11:29:17;3.88;;;2.92;;
11348;SDS011;5729;43.570;27.826;2023-06-19T11:31:50;5.38;;;3.10;;
11348;SDS011;5729;43.570;27.826;2023-06-19T11:34:18;5.47;;;2.92;;
11348;SDS011;5729;43.570;27.826;2023-06-19T11:36:44;3.05;;;2.85;;
11348;SDS011;5729;43.570;27.826;2023-06-19T11:39:13;6.03;;;3.20;;
11348;SDS011;5729;43.570;27.826;2023-06-19T11:41:40;3.80;;;3.40;;
11348;SDS011;5729;43.570;27.826;2023-06-19T11:44:08;3.50;;;3.20;;
11348;SDS011;5729;43.570;27.826;2023-06-19T11:46:36;3.70;;;3.35;;
11348;SDS011;5729;43.570;27.826;2023-06-19T11:49:15;4.55;;;3.33;;
11348;SDS011;5729;43.570;27.826;2023-06-19T11:51:45;4.20;;;3.40;;
11348;SDS011;5729;43.570;27.826;2023-06-19T11:54:11;5.00;;;3.15;;
11348;SDS011;5729;43.570;27.826;2023-06-19T11:56:39;3.05;;;2.80;;
11348;SDS011;5729;43.570;27.826;2023-06-19T11:59:06;5.25;;;3.70;;
11348;SDS011;5729;43.570;27.826;2023-06-19T12:01:32;3.92;;;3.53;;
11348;SDS011;5729;43.570;27.826;2023-06-19T12:03:59;7.57;;;3.00;;
11348;SDS011;5729;43.570;27.826;2023-06-19T12:06:25;4.45;;;3.47;;
11348;SDS011;5729;43.570;27.826;2023-06-19T12:08:52;7.82;;;3.50;;
11348;SDS011;5729;43.570;27.826;2023-06-19T12:11:17;5.38;;;3.10;;
11348;SDS011;5729;43.570;27.826;2023-06-19T12:13:42;4.97;;;3.05;;
11348;SDS011;5729;43.570;27.826;2023-06-19T12:16:09;4.90;;;3.20;;
11348;SDS011;5729;43.570;27.826;2023-06-19T12:18:35;4.50;;;3.17;;
11348;SDS011;5729;43.570;27.826;2023-06-19T12:21:01;3.45;;;3.10;;
11348;SDS011;5729;43.570;27.826;2023-06-19T12:23:27;3.20;;;2.90;;
11348;SDS011;5729;43.570;27.826;2023-06-19T12:25:52;4.07;;;3.08;;
11348;SDS011;5729;43.570;27.826;2023-06-19T12:28:18;5.22;;;3.28;;
11348;SDS011;5729;43.570;27.826;2023-06-19T12:30:46;4.85;;;3.40;;
11348;SDS011;5729;43.570;27.826;2023-06-19T12:33:19;9.48;;;3.30;;
11348;SDS011;5729;43.570;27.826;2023-06-19T12:35:48;3.38;;;3.08;;
11348;SDS011;5729;43.570;27.826;2023-06-19T12:38:14;6.95;;;3.50;;
11348;SDS011;5729;43.570;27.826;2023-06-19T12:40:40;4.53;;;3.38;;
11348;SDS011;5729;43.570;27.826;2023-06-19T12:43:06;4.03;;;3.63;;
11348;SDS011;5729;43.570;27.826;2023-06-19T12:45:31;4.43;;;3.10;;
11348;SDS011;5729;43.570;27.826;2023-06-19T12:47:57;3.28;;;2.97;;
11348;SDS011;5729;43.570;27.826;2023-06-19T12:50:22;3.63;;;3.10;;
11348;SDS011;5729;43.570;27.826;2023-06-19T12:52:48;7.25;;;2.90;;
11348;SDS011;5729;43.570;27.826;2023-06-19T12:55:14;2.95;;;2.70;;
11348;SDS011;5729;43.570;27.826;2023-06-19T12:57:40;7.88;;;3.30;;
11348;SDS011;5729;43.570;27.826;2023-06-19T13:00:09;3.58;;;2.83;;
11348;SDS011;5729;43.570;27.826;2023-06-19T13:02:37;4.38;;;2.90;;
11348;SDS011;5729;43.570;27.826;2023-06-19T13:05:04;4.45;;;2.70;;
11348;SDS011;5729;43.570;27.826;2023-06-19T13:07:30;5.70;;;3.13;;
11348;SDS011;5729;43.570;27.826;2023-06-19T13:09:55;3.38;;;3.08;;
11348;SDS011;5729;43.570;27.826;2023-06-19T13:12:21;3.50;;;3.10;;
11348;SDS011;5729;43.570;27.826;2023-06-19T13:14:47;5.05;;;2.97;;
11348;SDS011;5729;43.570;27.826;2023-06-19T13:17:13;4.47;;;3.13;;
11348;SDS011;5729;43.570;27.826;2023-06-19T13:19:39;3.45;;;3.00;;
11348;SDS011;5729;43.570;27.826;2023-06-19T13:22:05;3.80;;;2.75;;
11348;SDS011;5729;43.570;27.826;2023-06-19T13:24:30;3.65;;;3.05;;
11348;SDS011;5729;43.570;27.826;2023-06-19T13:26:56;5.10;;;2.97;;
11348;SDS011;5729;43.570;27.826;2023-06-19T13:29:21;3.00;;;2.80;;
11348;SDS011;5729;43.570;27.826;2023-06-19T13:31:47;3.10;;;2.80;;
11348;SDS011;5729;43.570;27.826;2023-06-19T13:34:12;3.83;;;2.70;;
11348;SDS011;5729;43.570;27.826;2023-06-19T13:36:38;3.08;;;2.75;;
11348;SDS011;5729;43.570;27.826;2023-06-19T13:39:04;2.83;;;2.63;;
11348;SDS011;5729;43.570;27.826;2023-06-19T13:41:30;5.90;;;3.03;;
11348;SDS011;5729;43.570;27.826;2023-06-19T13:43:58;3.85;;;2.53;;
11348;SDS011;5729;43.570;27.826;2023-06-19T13:46:24;3.88;;;2.72;;
11348;SDS011;5729;43.570;27.826;2023-06-19T13:48:50;2.97;;;2.50;;
11348;SDS011;5729;43.570;27.826;2023-06-19T13:51:20;6.75;;;3.50;;
11348;SDS011;5729;43.570;27.826;2023-06-19T13:53:46;4.22;;;2.50;;
11348;SDS011;5729;43.570;27.826;2023-06-19T13:56:13;3.05;;;2.22;;
11348;SDS011;5729;43.570;27.826;2023-06-19T13:58:39;3.47;;;2.60;;
11348;SDS011;5729;43.570;27.826;2023-06-19T14:01:05;4.05;;;2.60;;
11348;SDS011;5729;43.570;27.826;2023-06-19T14:03:31;4.07;;;2.20;;
11348;SDS011;5729;43.570;27.826;2023-06-19T14:05:56;4.28;;;2.45;;
11348;SDS011;5729;43.570;27.826;2023-06-19T14:08:22;5.07;;;2.50;;
11348;SDS011;5729;43.570;27.826;2023-06-19T14:10:49;3.03;;;2.35;;
11348;SDS011;5729;43.570;27.826;2023-06-19T14:13:14;3.67;;;2.40;;
11348;SDS011;5729;43.570;27.826;2023-06-19T14:15:40;4.10;;;2.45;;
11348;SDS011;5729;43.570;27.826;2023-06-19T14:18:06;2.42;;;2.22;;
11348;SDS011;5729;43.570;27.826;2023-06-19T14:20:31;3.03;;;2.45;;
11348;SDS011;5729;43.570;27.826;2023-06-19T14:22:57;2.72;;;2.30;;
11348;SDS011;5729;43.570;27.826;2023-06-19T14:25:22;6.78;;;2.40;;
11348;SDS011;5729;43.570;27.826;2023-06-19T14:27:47;2.65;;;2.45;;
11348;SDS011;5729;43.570;27.826;2023-06-19T14:30:13;2.38;;;2.17;;
11348;SDS011;5729;43.570;27.826;2023-06-19T14:32:39;4.57;;;2.40;;
11348;SDS011;5729;43.570;27.826;2023-06-19T14:35:05;6.82;;;2.63;;
11348;SDS011;5729;43.570;27.826;2023-06-19T14:37:31;2.97;;;2.58;;
11348;SDS011;5729;43.570;27.826;2023-06-19T14:39:56;2.85;;;2.30;;
11348;SDS011;5729;43.570;27.826;2023-06-19T14:42:22;4.70;;;2.80;;
11348;SDS011;5729;43.570;27.826;2023-06-19T14:44:48;3.67;;;2.30;;
11348;SDS011;5729;43.570;27.826;2023-06-19T14:47:13;3.40;;;2.60;;
11348;SDS011;5729;43.570;27.826;2023-06-19T14:49:39;3.47;;;2.17;;
11348;SDS011;5729;43.570;27.826;2023-06-19T14:52:05;3.15;;;2.85;;